Mexico V — XCKR — position and weather

sailwx.info

Track history (hours):
 
Tides and Currents Weather Stations Pressure Air Temp Water Temp Dewpoint Dewpoint Depression Visibility Wind Speed Wind Dir Waves Ship Positions

Mexico V

Last reported at 2016-Jul-23 03:33 UTC. Time now 2016-Jul-23 11:07 UTC.
Position N 20°32' W 086°58'.

Length 40 m; draft 1.5 m.

Type: Ship. MMSI: 345110005.

Date/timePositionNaut miles runAvg speedWind from/ knotsBaromVisibWave heightAir tempDewpointWater temp
2016-Jul-23 03:33N 20°32' W 086°58'3 2.1
2016-Jul-23 02:23N 20°34' W 087°00'4 5.1
2016-Jul-23 01:33N 20°31' W 086°57'0 0.1
2016-Jul-23 00:33N 20°31' W 086°57'0 0.0
2016-Jul-22 23:33N 20°31' W 086°57'3 2.9
2016-Jul-22 22:34N 20°33' W 086°59'1 0.8
2016-Jul-22 21:15N 20°32' W 086°59'3 4.1
2016-Jul-22 20:33N 20°29' W 086°58'3 1.4
2016-Jul-22 18:11N 20°32' W 086°59'1 1.3
2016-Jul-22 17:33N 20°33' W 086°60'1 0.4
2016-Jul-22 16:17N 20°33' W 086°59'0 0.4
2016-Jul-22 15:34N 20°33' W 086°59'0 0.3
2016-Jul-22 14:15N 20°33' W 086°59'2 2.7
2016-Jul-22 13:33N 20°31' W 086°58'2 1.9
2016-Jul-22 12:17N 20°33' W 086°60'3 4.6
2016-Jul-22 11:33N 20°31' W 086°57'0 0.0
2016-Jul-22 01:23N 20°31' W 086°57'0 0.0
2016-Jul-21 23:33N 20°31' W 086°57'0 0.1
2016-Jul-21 22:33N 20°31' W 086°57'0 0.0
2016-Jul-21 21:33N 20°31' W 086°57'0 0.0
2016-Jul-21 20:33N 20°31' W 086°57'0 0.0
2016-Jul-21 19:33N 20°31' W 086°57'0 0.0
2016-Jul-21 18:33N 20°31' W 086°57'0 0.0
2016-Jul-21 17:33N 20°31' W 086°57'2 2.4
2016-Jul-21 16:33N 20°32' W 086°59'1 0.5
2016-Jul-21 15:17N 20°33' W 086°59'3 4.1
2016-Jul-21 14:33N 20°31' W 086°57'0 0.0
2016-Jul-21 13:34N 20°31' W 086°57'1 1.3
2016-Jul-21 12:33N 20°32' W 086°58'2 1.4
2016-Jul-21 11:18N 20°33' W 086°59'2 0.3
2016-Jul-21 02:34N 20°31' W 086°58'3 2.1
2016-Jul-21 01:20N 20°33' W 086°60'3 4.4
2016-Jul-21 00:33N 20°31' W 086°57'0 0.0
2016-Jul-20 23:33N 20°31' W 086°57'2 2.2
2016-Jul-20 22:34N 20°32' W 086°59'1 0.9
2016-Jul-20 21:17N 20°33' W 086°60'3 4.5
2016-Jul-20 20:33N 20°31' W 086°57'0 0.1
2016-Jul-20 19:33N 20°31' W 086°57'0 0.0
2016-Jul-20 18:33N 20°31' W 086°57'3 1.2
2016-Jul-20 16:19N 20°33' W 086°59'3 3.4
2016-Jul-20 15:33N 20°31' W 086°57'0 0.0
2016-Jul-20 14:33N 20°31' W 086°57'1 1.4
2016-Jul-20 13:33N 20°32' W 086°58'2 1.2
2016-Jul-20 12:16N 20°33' W 086°59'3 0.3
2016-Jul-20 01:14N 20°31' W 086°57'0 0.0
2016-Jul-19 23:33N 20°31' W 086°57'0 0.1
2016-Jul-19 22:34N 20°31' W 086°57'0 0.0
2016-Jul-19 21:34N 20°31' W 086°57'0 0.0
2016-Jul-19 20:33N 20°31' W 086°57'0 0.0
2016-Jul-19 19:33N 20°31' W 086°57'0 0.0
2016-Jul-19 18:33N 20°31' W 086°57'0 0.0
2016-Jul-19 17:33N 20°31' W 086°57'3 3.1
2016-Jul-19 16:33N 20°33' W 086°59'0 0.1
2016-Jul-19 15:18N 20°33' W 086°59'0 0.2
2016-Jul-19 14:33N 20°33' W 086°60'1 0.5
2016-Jul-19 13:12N 20°32' W 086°59'2 3.7
2016-Jul-19 12:33N 20°31' W 086°57'0 0.0
2016-Jul-19 11:33N 20°31' W 086°57'2 0.2
2016-Jul-19 03:33N 20°32' W 086°58'2 1.3
2016-Jul-19 02:18N 20°33' W 086°60'3 4.4
2016-Jul-19 01:33N 20°31' W 086°57'0 0.1
2016-Jul-19 00:33N 20°31' W 086°57'0 0.0
2016-Jul-18 23:34N 20°31' W 086°57'2 1.6
2016-Jul-18 22:33N 20°32' W 086°58'2 1.8
2016-Jul-18 21:19N 20°34' W 086°60'4 4.9
2016-Jul-18 20:33N 20°31' W 086°57'3 2.8
2016-Jul-18 19:34N 20°33' W 086°59'1 0.9
2016-Jul-18 18:19N 20°33' W 087°00'1 0.7
2016-Jul-18 17:33N 20°33' W 086°60'0 0.2
2016-Jul-18 16:16N 20°33' W 086°60'1 0.3
2016-Jul-18 14:12N 20°32' W 086°59'0 0.2
2016-Jul-18 13:33N 20°32' W 086°59'0 0.0
2016-Jul-18 12:14N 20°32' W 086°59'2 3.5
2016-Jul-18 11:33N 20°31' W 086°57'0 0.0
2016-Jul-17 04:10N 20°30' W 086°57'2 4.0
2016-Jul-17 03:33N 20°33' W 086°59'1 0.6
2016-Jul-17 02:15N 20°33' W 086°59'3 4.6
2016-Jul-17 01:33N 20°31' W 086°57'2 1.6
2016-Jul-17 00:34N 20°32' W 086°58'2 1.5
2016-Jul-16 23:16N 20°33' W 086°60'4 5.0
2016-Jul-16 22:33N 20°31' W 086°57'0 0.1
2016-Jul-16 21:33N 20°31' W 086°57'0 0.1
2016-Jul-16 20:33N 20°31' W 086°57'3 3.1
2016-Jul-16 19:33N 20°33' W 086°59'0 0.1
2016-Jul-16 18:18N 20°33' W 086°59'0 0.4
2016-Jul-16 17:34N 20°32' W 086°59'1 0.4
2016-Jul-16 16:17N 20°33' W 086°59'3 4.4
2016-Jul-16 15:33N 20°31' W 086°57'0 0.0
2016-Jul-16 14:34N 20°31' W 086°57'2 1.7
2016-Jul-16 13:33N 20°32' W 086°58'1 0.8
2016-Jul-16 12:17N 20°33' W 086°59'1 0.1
2016-Jul-16 01:33N 20°32' W 086°59'1 1.2
2016-Jul-16 00:18N 20°33' W 086°60'3 3.5
2016-Jul-15 23:33N 20°31' W 086°58'2 1.4
2016-Jul-15 22:17N 20°33' W 086°59'3 3.7
2016-Jul-15 21:34N 20°31' W 086°57'0 0.1
2016-Jul-15 20:34N 20°31' W 086°57'0 0.0
2016-Jul-15 19:34N 20°31' W 086°57'0 0.0
2016-Jul-15 18:33N 20°31' W 086°57'0 0.0
2016-Jul-15 17:34N 20°31' W 086°57'1 1.4
2016-Jul-15 16:34N 20°32' W 086°58'2 1.8
2016-Jul-15 15:19N 20°33' W 086°60'4 4.8
2016-Jul-15 14:33N 20°31' W 086°57'0 0.0
2016-Jul-15 13:33N 20°31' W 086°57'0 0.4
2016-Jul-15 12:33N 20°31' W 086°57'2 1.7
2016-Jul-15 11:16N 20°32' W 086°59'2 3.5
2016-Jul-15 10:33N 20°31' W 086°57'2 0.3
2016-Jul-15 02:34N 20°32' W 086°59'3 2.1
2016-Jul-15 01:22N 20°34' W 087°01'5 5.7
2016-Jul-15 00:33N 20°31' W 086°57'0 0.0
2016-Jul-14 23:33N 20°31' W 086°57'2 2.5
2016-Jul-14 22:33N 20°32' W 086°59'1 0.8
2016-Jul-14 21:20N 20°33' W 086°60'3 4.5
2016-Jul-14 20:33N 20°31' W 086°57'2 1.8
2016-Jul-14 19:33N 20°32' W 086°58'1 0.9
2016-Jul-14 18:16N 20°33' W 086°59'1 0.8
2016-Jul-14 17:33N 20°32' W 086°59'1 0.4
2016-Jul-14 16:13N 20°32' W 086°59'1 1.8
2016-Jul-14 15:34N 20°33' W 086°60'1 0.6
2016-Jul-14 14:15N 20°32' W 086°59'2 3.2
2016-Jul-14 13:33N 20°31' W 086°57'0 0.1
2016-Jul-14 12:33N 20°31' W 086°57'1 0.1
2016-Jul-14 01:34N 20°32' W 086°58'1 0.9
2016-Jul-14 00:16N 20°32' W 086°59'1 1.3
2016-Jul-13 23:33N 20°32' W 086°58'1 0.7
2016-Jul-13 22:16N 20°32' W 086°59'2 3.4
2016-Jul-13 21:33N 20°31' W 086°57'0 0.1
2016-Jul-13 20:34N 20°31' W 086°57'0 0.0
2016-Jul-13 19:33N 20°31' W 086°57'0 0.0
2016-Jul-13 18:34N 20°31' W 086°57'0 0.0
2016-Jul-13 17:33N 20°31' W 086°57'2 1.8
2016-Jul-13 16:33N 20°32' W 086°58'1 1.1
2016-Jul-13 15:18N 20°33' W 086°59'2 3.2
2016-Jul-13 14:33N 20°31' W 086°57'2 1.8
2016-Jul-13 13:18N 20°33' W 086°59'3 4.1
2016-Jul-13 12:34N 20°31' W 086°57'0 0.0
2016-Jul-13 11:34N 20°31' W 086°57'2 0.2
2016-Jul-13 03:33N 20°32' W 086°58'  
Track history (hours):
 
Tides and Currents Weather Stations Pressure Air Temp Water Temp Dewpoint Dewpoint Depression Visibility Wind Speed Wind Dir Waves Ship Positions

Mexico V

Last reported at 2016-Jul-23 03:33 UTC. Time now 2016-Jul-23 11:08 UTC.
Position N 20°32' W 086°58'.

Length 40 m; draft 1.5 m.

Type: Ship. MMSI: 345110005.

Date/timePositionNaut miles runAvg speedWind from/ knotsBaromVisibWave heightAir tempDewpointWater temp
2016-Jul-23 03:33N 20°32' W 086°58'3 2.1
2016-Jul-23 02:23N 20°34' W 087°00'4 5.1
2016-Jul-23 01:33N 20°31' W 086°57'0 0.1
2016-Jul-23 00:33N 20°31' W 086°57'0 0.0
2016-Jul-22 23:33N 20°31' W 086°57'3 2.9
2016-Jul-22 22:34N 20°33' W 086°59'1 0.8
2016-Jul-22 21:15N 20°32' W 086°59'3 4.1
2016-Jul-22 20:33N 20°29' W 086°58'3 1.4
2016-Jul-22 18:11N 20°32' W 086°59'1 1.3
2016-Jul-22 17:33N 20°33' W 086°60'1 0.4
2016-Jul-22 16:17N 20°33' W 086°59'0 0.4
2016-Jul-22 15:34N 20°33' W 086°59'0 0.3
2016-Jul-22 14:15N 20°33' W 086°59'2 2.7
2016-Jul-22 13:33N 20°31' W 086°58'2 1.9
2016-Jul-22 12:17N 20°33' W 086°60'3 4.6
2016-Jul-22 11:33N 20°31' W 086°57'0 0.0
2016-Jul-22 01:23N 20°31' W 086°57'0 0.0
2016-Jul-21 23:33N 20°31' W 086°57'0 0.1
2016-Jul-21 22:33N 20°31' W 086°57'0 0.0
2016-Jul-21 21:33N 20°31' W 086°57'0 0.0
2016-Jul-21 20:33N 20°31' W 086°57'0 0.0
2016-Jul-21 19:33N 20°31' W 086°57'0 0.0
2016-Jul-21 18:33N 20°31' W 086°57'0 0.0
2016-Jul-21 17:33N 20°31' W 086°57'2 2.4
2016-Jul-21 16:33N 20°32' W 086°59'1 0.5
2016-Jul-21 15:17N 20°33' W 086°59'3 4.1
2016-Jul-21 14:33N 20°31' W 086°57'0 0.0
2016-Jul-21 13:34N 20°31' W 086°57'1 1.3
2016-Jul-21 12:33N 20°32' W 086°58'2 1.4
2016-Jul-21 11:18N 20°33' W 086°59'2 0.3
2016-Jul-21 02:34N 20°31' W 086°58'3 2.1
2016-Jul-21 01:20N 20°33' W 086°60'3 4.4
2016-Jul-21 00:33N 20°31' W 086°57'0 0.0
2016-Jul-20 23:33N 20°31' W 086°57'2 2.2
2016-Jul-20 22:34N 20°32' W 086°59'1 0.9
2016-Jul-20 21:17N 20°33' W 086°60'3 4.5
2016-Jul-20 20:33N 20°31' W 086°57'0 0.1
2016-Jul-20 19:33N 20°31' W 086°57'0 0.0
2016-Jul-20 18:33N 20°31' W 086°57'3 1.2
2016-Jul-20 16:19N 20°33' W 086°59'3 3.4
2016-Jul-20 15:33N 20°31' W 086°57'0 0.0
2016-Jul-20 14:33N 20°31' W 086°57'1 1.4
2016-Jul-20 13:33N 20°32' W 086°58'2 1.2
2016-Jul-20 12:16N 20°33' W 086°59'3 0.3
2016-Jul-20 01:14N 20°31' W 086°57'0 0.0
2016-Jul-19 23:33N 20°31' W 086°57'0 0.1
2016-Jul-19 22:34N 20°31' W 086°57'0 0.0
2016-Jul-19 21:34N 20°31' W 086°57'0 0.0
2016-Jul-19 20:33N 20°31' W 086°57'0 0.0
2016-Jul-19 19:33N 20°31' W 086°57'0 0.0
2016-Jul-19 18:33N 20°31' W 086°57'0 0.0
2016-Jul-19 17:33N 20°31' W 086°57'3 3.1
2016-Jul-19 16:33N 20°33' W 086°59'0 0.1
2016-Jul-19 15:18N 20°33' W 086°59'0 0.2
2016-Jul-19 14:33N 20°33' W 086°60'1 0.5
2016-Jul-19 13:12N 20°32' W 086°59'2 3.7
2016-Jul-19 12:33N 20°31' W 086°57'0 0.0
2016-Jul-19 11:33N 20°31' W 086°57'2 0.2
2016-Jul-19 03:33N 20°32' W 086°58'2 1.3
2016-Jul-19 02:18N 20°33' W 086°60'3 4.4
2016-Jul-19 01:33N 20°31' W 086°57'0 0.1
2016-Jul-19 00:33N 20°31' W 086°57'0 0.0
2016-Jul-18 23:34N 20°31' W 086°57'2 1.6
2016-Jul-18 22:33N 20°32' W 086°58'2 1.8
2016-Jul-18 21:19N 20°34' W 086°60'4 4.9
2016-Jul-18 20:33N 20°31' W 086°57'3 2.8
2016-Jul-18 19:34N 20°33' W 086°59'1 0.9
2016-Jul-18 18:19N 20°33' W 087°00'1 0.7
2016-Jul-18 17:33N 20°33' W 086°60'0 0.2
2016-Jul-18 16:16N 20°33' W 086°60'1 0.3
2016-Jul-18 14:12N 20°32' W 086°59'0 0.2
2016-Jul-18 13:33N 20°32' W 086°59'0 0.0
2016-Jul-18 12:14N 20°32' W 086°59'2 3.5
2016-Jul-18 11:33N 20°31' W 086°57'0 0.0
2016-Jul-17 04:10N 20°30' W 086°57'2 4.0
2016-Jul-17 03:33N 20°33' W 086°59'1 0.6
2016-Jul-17 02:15N 20°33' W 086°59'3 4.6
2016-Jul-17 01:33N 20°31' W 086°57'2 1.6
2016-Jul-17 00:34N 20°32' W 086°58'2 1.5
2016-Jul-16 23:16N 20°33' W 086°60'4 5.0
2016-Jul-16 22:33N 20°31' W 086°57'0 0.1
2016-Jul-16 21:33N 20°31' W 086°57'0 0.1
2016-Jul-16 20:33N 20°31' W 086°57'3 3.1
2016-Jul-16 19:33N 20°33' W 086°59'0 0.1
2016-Jul-16 18:18N 20°33' W 086°59'0 0.4
2016-Jul-16 17:34N 20°32' W 086°59'1 0.4
2016-Jul-16 16:17N 20°33' W 086°59'3 4.4
2016-Jul-16 15:33N 20°31' W 086°57'0 0.0
2016-Jul-16 14:34N 20°31' W 086°57'2 1.7
2016-Jul-16 13:33N 20°32' W 086°58'1 0.8
2016-Jul-16 12:17N 20°33' W 086°59'1 0.1
2016-Jul-16 01:33N 20°32' W 086°59'1 1.2
2016-Jul-16 00:18N 20°33' W 086°60'3 3.5
2016-Jul-15 23:33N 20°31' W 086°58'2 1.4
2016-Jul-15 22:17N 20°33' W 086°59'3 3.7
2016-Jul-15 21:34N 20°31' W 086°57'0 0.1
2016-Jul-15 20:34N 20°31' W 086°57'0 0.0
2016-Jul-15 19:34N 20°31' W 086°57'0 0.0
2016-Jul-15 18:33N 20°31' W 086°57'0 0.0
2016-Jul-15 17:34N 20°31' W 086°57'1 1.4
2016-Jul-15 16:34N 20°32' W 086°58'2 1.8
2016-Jul-15 15:19N 20°33' W 086°60'4 4.8
2016-Jul-15 14:33N 20°31' W 086°57'0 0.0
2016-Jul-15 13:33N 20°31' W 086°57'0 0.4
2016-Jul-15 12:33N 20°31' W 086°57'2 1.7
2016-Jul-15 11:16N 20°32' W 086°59'2 3.5
2016-Jul-15 10:33N 20°31' W 086°57'2 0.3
2016-Jul-15 02:34N 20°32' W 086°59'3 2.1
2016-Jul-15 01:22N 20°34' W 087°01'5 5.7
2016-Jul-15 00:33N 20°31' W 086°57'0 0.0
2016-Jul-14 23:33N 20°31' W 086°57'2 2.5
2016-Jul-14 22:33N 20°32' W 086°59'1 0.8
2016-Jul-14 21:20N 20°33' W 086°60'3 4.5
2016-Jul-14 20:33N 20°31' W 086°57'2 1.8
2016-Jul-14 19:33N 20°32' W 086°58'1 0.9
2016-Jul-14 18:16N 20°33' W 086°59'1 0.8
2016-Jul-14 17:33N 20°32' W 086°59'1 0.4
2016-Jul-14 16:13N 20°32' W 086°59'1 1.8
2016-Jul-14 15:34N 20°33' W 086°60'1 0.6
2016-Jul-14 14:15N 20°32' W 086°59'2 3.2
2016-Jul-14 13:33N 20°31' W 086°57'0 0.1
2016-Jul-14 12:33N 20°31' W 086°57'1 0.1
2016-Jul-14 01:34N 20°32' W 086°58'1 0.9
2016-Jul-14 00:16N 20°32' W 086°59'1 1.3
2016-Jul-13 23:33N 20°32' W 086°58'1 0.7
2016-Jul-13 22:16N 20°32' W 086°59'2 3.4
2016-Jul-13 21:33N 20°31' W 086°57'0 0.1
2016-Jul-13 20:34N 20°31' W 086°57'0 0.0
2016-Jul-13 19:33N 20°31' W 086°57'0 0.0
2016-Jul-13 18:34N 20°31' W 086°57'0 0.0
2016-Jul-13 17:33N 20°31' W 086°57'2 1.8
2016-Jul-13 16:33N 20°32' W 086°58'1 1.1
2016-Jul-13 15:18N 20°33' W 086°59'2 3.2
2016-Jul-13 14:33N 20°31' W 086°57'2 1.8
2016-Jul-13 13:18N 20°33' W 086°59'3 4.1
2016-Jul-13 12:34N 20°31' W 086°57'0 0.0
2016-Jul-13 11:34N 20°31' W 086°57'2 0.2
2016-Jul-13 03:33N 20°32' W 086°58'  

Dump ship's entire track history